createdAt,value
2022-12-18T00:01:21.692Z,-5.21
2022-12-18T00:03:48.599Z,-5.19
2022-12-18T00:06:16.271Z,-5.19
2022-12-18T00:08:44.454Z,-5.13
2022-12-18T00:11:17.860Z,-5.04
2022-12-18T00:13:45.650Z,-4.94
2022-12-18T00:16:14.964Z,-5.03
2022-12-18T00:18:42.568Z,-5.09
2022-12-18T00:21:11.176Z,-5.11
2022-12-18T00:23:39.125Z,-5.13
2022-12-18T00:26:27.615Z,-5.17
2022-12-18T00:28:54.686Z,-5.23
2022-12-18T00:31:24.091Z,-5.22
2022-12-18T00:33:55.316Z,-5.19
2022-12-18T00:36:26.103Z,-5.13
2022-12-18T00:38:53.935Z,-5.14
2022-12-18T00:41:38.988Z,-5.18
2022-12-18T00:44:08.162Z,-5.12
2022-12-18T00:46:34.878Z,-5.09
2022-12-18T00:49:01.490Z,-5.14
2022-12-18T00:51:28.168Z,-5.23
2022-12-18T00:53:54.871Z,-5.21
2022-12-18T00:56:21.397Z,-5.15
2022-12-18T00:58:48.160Z,-5.13
2022-12-18T01:01:15.752Z,-5.11
2022-12-18T01:03:42.449Z,-5.10
2022-12-18T01:06:11.214Z,-5.06
2022-12-18T01:08:40.402Z,-5.03
2022-12-18T01:11:12.807Z,-5.10
2022-12-18T01:13:40.877Z,-5.08
2022-12-18T01:16:07.959Z,-5.16
2022-12-18T01:18:34.432Z,-5.16
2022-12-18T01:21:00.926Z,-5.17
2022-12-18T01:23:27.595Z,-5.17
2022-12-18T01:25:54.093Z,-5.26
2022-12-18T01:28:20.646Z,-5.22
2022-12-18T01:30:47.167Z,-5.20
2022-12-18T01:33:13.722Z,-5.22
2022-12-18T01:35:44.042Z,-5.27
2022-12-18T01:38:10.739Z,-5.36
2022-12-18T01:40:37.876Z,-5.36
2022-12-18T01:43:04.583Z,-5.43
2022-12-18T01:45:32.877Z,-5.47
2022-12-18T01:48:09.864Z,-5.47
2022-12-18T01:50:40.484Z,-5.52
2022-12-18T01:53:18.029Z,-5.56
2022-12-18T01:55:49.570Z,-5.58
2022-12-18T01:58:17.047Z,-5.58
2022-12-18T02:00:44.178Z,-5.52
2022-12-18T02:03:12.026Z,-5.54
2022-12-18T02:06:08.321Z,-5.50
2022-12-18T02:09:03.931Z,-5.49
2022-12-18T02:11:57.555Z,-5.47
2022-12-18T02:14:56.534Z,-5.48
2022-12-18T02:17:57.685Z,-5.63
2022-12-18T02:20:34.213Z,-5.79
2022-12-18T02:23:19.037Z,-5.77
2022-12-18T02:26:03.569Z,-5.70
2022-12-18T02:28:34.904Z,-5.67
2022-12-18T02:31:05.916Z,-5.71
2022-12-18T02:33:35.976Z,-5.65
2022-12-18T02:36:03.982Z,-5.72
2022-12-18T02:38:32.353Z,-5.76
2022-12-18T02:41:00.400Z,-5.77
2022-12-18T02:43:26.988Z,-5.73
2022-12-18T02:45:57.705Z,-5.63
2022-12-18T02:48:31.623Z,-5.62
2022-12-18T02:51:10.001Z,-5.62
2022-12-18T02:54:08.655Z,-5.62
2022-12-18T02:56:52.939Z,-5.71
2022-12-18T02:59:29.273Z,-5.63
2022-12-18T03:02:17.980Z,-5.77
2022-12-18T03:04:55.544Z,-5.74
2022-12-18T03:07:36.518Z,-5.70
2022-12-18T03:10:04.412Z,-5.77
2022-12-18T03:12:38.777Z,-5.83
2022-12-18T03:15:18.146Z,-5.82
2022-12-18T03:17:57.914Z,-5.79
2022-12-18T03:20:28.036Z,-5.81
2022-12-18T03:22:58.444Z,-5.87
2022-12-18T03:25:27.832Z,-5.95
2022-12-18T03:27:58.697Z,-6.03
2022-12-18T03:30:29.190Z,-6.05
2022-12-18T03:33:10.642Z,-6.07
2022-12-18T03:35:41.105Z,-6.17
2022-12-18T03:38:08.078Z,-6.12
2022-12-18T03:41:12.808Z,-6.18
2022-12-18T03:43:57.546Z,-6.17
2022-12-18T03:46:55.771Z,-6.16
2022-12-18T03:49:45.817Z,-6.24
2022-12-18T03:52:31.319Z,-6.16
2022-12-18T03:55:00.767Z,-6.15
2022-12-18T03:57:30.659Z,-6.19
2022-12-18T04:00:01.519Z,-6.22
2022-12-18T04:02:29.972Z,-6.37
2022-12-18T04:05:00.876Z,-6.36
2022-12-18T04:07:28.183Z,-6.28
2022-12-18T04:09:57.651Z,-6.33
2022-12-18T04:12:29.492Z,-6.28
2022-12-18T04:14:56.262Z,-6.24
2022-12-18T04:17:23.548Z,-6.24
2022-12-18T04:19:50.855Z,-6.26
2022-12-18T04:22:17.498Z,-6.21
2022-12-18T04:24:44.019Z,-6.25
2022-12-18T04:27:10.555Z,-6.32
2022-12-18T04:29:37.103Z,-6.38
2022-12-18T04:32:03.661Z,-6.25
2022-12-18T04:34:30.197Z,-6.21
2022-12-18T04:36:57.436Z,-6.20
2022-12-18T04:39:24.076Z,-6.13
2022-12-18T04:41:51.367Z,-6.07
2022-12-18T04:44:17.964Z,-6.13
2022-12-18T04:46:44.833Z,-6.04
2022-12-18T04:49:11.757Z,-6.00
2022-12-18T04:51:38.644Z,-5.96
2022-12-18T04:54:05.238Z,-5.95
2022-12-18T04:56:32.628Z,-5.94
2022-12-18T04:58:59.158Z,-5.93
2022-12-18T05:01:30.945Z,-5.91
2022-12-18T05:04:00.855Z,-5.91
2022-12-18T05:06:27.374Z,-5.91
2022-12-18T05:08:53.865Z,-5.92
2022-12-18T05:11:20.426Z,-5.96
2022-12-18T05:13:47.107Z,-6.02
2022-12-18T05:16:15.038Z,-5.95
2022-12-18T05:18:41.983Z,-5.96
2022-12-18T05:21:08.625Z,-5.97
2022-12-18T05:23:35.936Z,-5.95
2022-12-18T05:26:05.206Z,-5.92
2022-12-18T05:28:34.338Z,-5.91
2022-12-18T05:31:03.211Z,-5.91
2022-12-18T05:33:32.954Z,-5.86
2022-12-18T05:36:03.777Z,-5.85
2022-12-18T05:38:32.038Z,-5.81
2022-12-18T05:40:59.070Z,-5.76
2022-12-18T05:43:26.762Z,-5.76
2022-12-18T05:45:54.471Z,-5.76
2022-12-18T05:48:22.202Z,-5.76
2022-12-18T05:50:50.682Z,-5.71
2022-12-18T05:53:19.290Z,-5.71
2022-12-18T05:55:46.474Z,-5.70
2022-12-18T05:58:15.413Z,-5.58
2022-12-18T06:00:45.761Z,-5.58
2022-12-18T06:03:13.215Z,-5.59
2022-12-18T06:05:42.321Z,-5.64
2022-12-18T06:08:09.729Z,-5.71
2022-12-18T06:10:36.450Z,-5.65
2022-12-18T06:13:03.068Z,-5.61
2022-12-18T06:15:29.626Z,-5.60
2022-12-18T06:17:56.154Z,-5.64
2022-12-18T06:20:23.031Z,-5.65
2022-12-18T06:22:49.527Z,-5.61
2022-12-18T06:25:16.296Z,-5.65
2022-12-18T06:27:43.055Z,-5.59
2022-12-18T06:30:10.908Z,-5.60
2022-12-18T06:32:37.421Z,-5.60
2022-12-18T06:35:04.835Z,-5.63
2022-12-18T06:37:32.492Z,-5.61
2022-12-18T06:39:58.997Z,-5.60
2022-12-18T06:42:26.158Z,-5.62
2022-12-18T06:44:52.796Z,-5.64
2022-12-18T06:47:19.764Z,-5.61
2022-12-18T06:49:46.294Z,-5.61
2022-12-18T06:52:12.977Z,-5.66
2022-12-18T06:54:39.524Z,-5.70
2022-12-18T06:57:06.005Z,-5.64
2022-12-18T06:59:32.546Z,-5.63
2022-12-18T07:01:59.078Z,-5.62
2022-12-18T07:04:41.995Z,-5.61
2022-12-18T07:07:08.448Z,-5.60
2022-12-18T07:09:35.022Z,-5.30
2022-12-18T07:12:08.893Z,-5.28
2022-12-18T07:14:35.697Z,-5.42
2022-12-18T07:17:02.655Z,-5.56
2022-12-18T07:19:30.487Z,-5.55
2022-12-18T07:21:57.845Z,-5.53
2022-12-18T07:25:00.537Z,-5.45
2022-12-18T07:31:23.050Z,-5.34
2022-12-18T07:38:36.322Z,-5.13
2022-12-18T07:41:03.783Z,-5.09
2022-12-18T07:48:05.075Z,-4.62
2022-12-18T07:51:00.945Z,-4.35
2022-12-18T07:53:30.416Z,-4.22
2022-12-18T07:56:26.508Z,-4.28
2022-12-18T07:58:54.998Z,-4.22
2022-12-18T08:01:30.862Z,-4.25
2022-12-18T08:04:13.826Z,-4.24
2022-12-18T08:06:43.677Z,-4.07
2022-12-18T08:09:26.915Z,-3.88
2022-12-18T08:11:53.389Z,-3.73
2022-12-18T08:14:19.860Z,-3.76
2022-12-18T08:16:46.448Z,-3.57
2022-12-18T08:19:52.536Z,-3.63
2022-12-18T08:22:19.362Z,-3.78
2022-12-18T08:24:46.290Z,-3.66
2022-12-18T08:27:28.870Z,-3.64
2022-12-18T08:29:56.479Z,-3.83
2022-12-18T08:32:23.020Z,-3.88
2022-12-18T08:34:49.552Z,-3.99
2022-12-18T08:37:16.073Z,-3.99
2022-12-18T08:39:42.591Z,-4.03
2022-12-18T08:42:27.802Z,-3.84
2022-12-18T08:44:54.485Z,-3.67
2022-12-18T08:47:21.036Z,-3.37
2022-12-18T08:49:47.652Z,-3.23
2022-12-18T08:52:14.127Z,-3.36
2022-12-18T08:54:40.685Z,-3.43
2022-12-18T08:57:07.716Z,-3.35
2022-12-18T08:59:34.221Z,-3.45
2022-12-18T09:02:00.829Z,-3.57
2022-12-18T09:04:27.369Z,-3.40
2022-12-18T09:06:57.069Z,-3.55
2022-12-18T09:09:23.562Z,-3.49
2022-12-18T09:11:50.158Z,-3.43
2022-12-18T09:14:16.620Z,-3.39
2022-12-18T09:16:43.467Z,-3.54
2022-12-18T09:19:14.045Z,-3.36
2022-12-18T09:21:46.140Z,-3.19
2022-12-18T09:24:15.462Z,-2.90
2022-12-18T09:26:43.672Z,-3.12
2022-12-18T09:29:13.803Z,-3.18
2022-12-18T09:31:41.411Z,-3.28
2022-12-18T09:34:08.034Z,-3.23
2022-12-18T09:36:34.568Z,-3.06
2022-12-18T09:39:05.102Z,-3.20
2022-12-18T09:41:37.486Z,-3.22
2022-12-18T09:44:14.846Z,-3.01
2022-12-18T09:46:46.726Z,-2.88
2022-12-18T09:49:17.220Z,-2.74
2022-12-18T09:51:53.879Z,-2.58
2022-12-18T09:54:31.790Z,-2.72
2022-12-18T09:56:58.295Z,-2.66
2022-12-18T09:59:31.947Z,-2.53
2022-12-18T10:01:58.724Z,-2.56
2022-12-18T10:04:31.526Z,-2.40
2022-12-18T10:07:09.468Z,-2.37
2022-12-18T10:09:58.283Z,-2.53
2022-12-18T10:12:43.183Z,-2.97
2022-12-18T10:15:17.522Z,-3.11
2022-12-18T10:18:02.621Z,-3.11
2022-12-18T10:20:51.356Z,-3.23
2022-12-18T10:23:27.035Z,-3.37
2022-12-18T10:26:11.617Z,-3.21
2022-12-18T10:28:40.775Z,-3.02
2022-12-18T10:31:15.325Z,-2.88
2022-12-18T10:33:42.279Z,-2.40
2022-12-18T10:36:08.989Z,-2.23
2022-12-18T10:38:35.624Z,-1.73
2022-12-18T10:41:12.432Z,-1.19
2022-12-18T10:43:40.445Z,-1.36
2022-12-18T10:46:09.788Z,-1.49
2022-12-18T10:48:48.774Z,-1.84
2022-12-18T10:51:24.360Z,-1.49
2022-12-18T10:53:58.226Z,-1.51
2022-12-18T10:56:27.072Z,-1.16
2022-12-18T10:59:14.811Z,-0.60
2022-12-18T11:01:58.863Z,0.10
2022-12-18T11:04:30.490Z,0.41
2022-12-18T11:07:09.737Z,0.70
2022-12-18T11:09:41.341Z,0.54
2022-12-18T11:12:13.814Z,0.29
2022-12-18T11:14:47.120Z,0.83
2022-12-18T11:17:32.834Z,0.25
2022-12-18T11:20:02.099Z,0.07
2022-12-18T11:22:30.155Z,0.70
2022-12-18T11:28:02.319Z,0.39
2022-12-18T11:30:38.422Z,-0.12
2022-12-18T11:33:21.819Z,0.02
2022-12-18T11:35:54.589Z,0.24
2022-12-18T11:38:26.524Z,0.91
2022-12-18T11:41:01.084Z,1.55
2022-12-18T11:43:34.356Z,2.31
2022-12-18T11:46:16.068Z,2.67
2022-12-18T11:48:59.644Z,3.02
2022-12-18T11:51:35.757Z,3.19
2022-12-18T11:54:11.190Z,4.30
2022-12-18T11:56:50.957Z,4.50
2022-12-18T11:59:24.071Z,5.02
2022-12-18T12:02:12.936Z,5.68
2022-12-18T12:04:51.675Z,5.02
2022-12-18T12:07:32.357Z,5.28
2022-12-18T12:10:04.482Z,5.68
2022-12-18T12:12:52.874Z,5.16
2022-12-18T12:15:36.747Z,5.79
2022-12-18T12:18:18.903Z,6.36
2022-12-18T12:20:45.362Z,6.26
2022-12-18T12:23:37.220Z,5.80
2022-12-18T12:26:46.625Z,5.57
2022-12-18T12:29:31.825Z,4.80
2022-12-18T12:32:11.971Z,4.39
2022-12-18T12:34:38.312Z,4.99
2022-12-18T12:37:38.637Z,4.55
2022-12-18T12:40:26.947Z,4.35
2022-12-18T12:43:16.440Z,4.19
2022-12-18T12:45:56.790Z,4.08
2022-12-18T12:48:36.677Z,4.04
2022-12-18T12:51:11.271Z,2.85
2022-12-18T12:53:40.556Z,2.13
2022-12-18T12:56:10.843Z,2.09
2022-12-18T12:58:42.731Z,1.02
2022-12-18T13:01:40.539Z,1.22
2022-12-18T13:04:22.915Z,1.61
2022-12-18T13:07:06.316Z,2.35
2022-12-18T13:09:34.991Z,2.33
2022-12-18T13:12:37.141Z,2.04
2022-12-18T13:15:25.349Z,1.06
2022-12-18T13:18:10.942Z,0.34
2022-12-18T13:20:50.766Z,-0.04
2022-12-18T13:23:26.642Z,-0.59
2022-12-18T13:25:54.573Z,-0.82
2022-12-18T13:28:49.086Z,-1.04
2022-12-18T13:31:41.773Z,-1.23
2022-12-18T13:34:28.089Z,-1.36
2022-12-18T13:36:58.373Z,-1.82
2022-12-18T13:39:35.135Z,-1.97
2022-12-18T13:42:08.610Z,-2.16
2022-12-18T13:44:42.259Z,-2.39
2022-12-18T13:47:32.416Z,-2.41
2022-12-18T13:50:00.043Z,-2.62
2022-12-18T13:52:29.768Z,-2.74
2022-12-18T13:54:58.726Z,-2.89
2022-12-18T13:57:29.669Z,-3.01
2022-12-18T13:59:57.240Z,-3.14
2022-12-18T14:02:27.271Z,-3.11
2022-12-18T14:04:54.213Z,-3.28
2022-12-18T14:07:27.472Z,-3.31
2022-12-18T14:13:03.108Z,-3.48
2022-12-18T14:15:30.014Z,-3.58
2022-12-18T14:18:12.590Z,-3.59
2022-12-18T14:20:46.530Z,-3.78
2022-12-18T14:23:29.350Z,-3.80
2022-12-18T14:25:58.573Z,-3.85
2022-12-18T14:28:27.907Z,-3.93
2022-12-18T14:30:55.769Z,-4.14
2022-12-18T14:33:27.539Z,-4.26
2022-12-18T14:36:02.737Z,-4.29
2022-12-18T14:38:33.609Z,-4.42
2022-12-18T14:41:18.078Z,-4.48
2022-12-18T14:43:48.390Z,-4.60
2022-12-18T14:46:30.141Z,-4.71
2022-12-18T14:48:58.050Z,-4.87
2022-12-18T14:51:27.108Z,-4.94
2022-12-18T14:54:02.002Z,-5.05
2022-12-18T14:56:44.290Z,-5.22
2022-12-18T14:59:24.645Z,-5.27
2022-12-18T15:02:10.212Z,-5.39
2022-12-18T15:04:43.003Z,-5.51
2022-12-18T15:07:18.743Z,-5.57
2022-12-18T15:10:12.927Z,-5.63
2022-12-18T15:13:09.251Z,-5.78
2022-12-18T15:15:38.516Z,-5.84
2022-12-18T15:18:14.003Z,-5.85
2022-12-18T15:20:48.723Z,-5.90
2022-12-18T15:23:24.251Z,-5.87
2022-12-18T15:26:12.885Z,-5.97
2022-12-18T15:28:46.759Z,-6.10
2022-12-18T15:31:13.320Z,-6.08
2022-12-18T15:33:51.408Z,-6.13
2022-12-18T15:36:26.578Z,-6.17
2022-12-18T15:38:56.050Z,-6.23
2022-12-18T15:41:28.021Z,-6.27
2022-12-18T15:43:54.757Z,-6.38
2022-12-18T15:46:23.751Z,-6.38
2022-12-18T15:49:01.402Z,-6.44
2022-12-18T15:51:32.248Z,-6.44
2022-12-18T15:54:02.046Z,-6.49
2022-12-18T15:56:47.519Z,-6.60
2022-12-18T15:59:17.112Z,-6.59
2022-12-18T16:01:47.084Z,-6.52
2022-12-18T16:04:16.545Z,-6.58
2022-12-18T16:07:12.709Z,-6.67
2022-12-18T16:09:30.179Z,-6.78
2022-12-18T16:11:56.727Z,-6.71
2022-12-18T16:14:29.434Z,-6.76
2022-12-18T16:17:01.290Z,-6.70
2022-12-18T16:19:28.342Z,-6.78
2022-12-18T16:21:56.484Z,-6.85
2022-12-18T16:24:25.514Z,-6.97
2022-12-18T16:26:52.994Z,-6.97
2022-12-18T16:29:20.437Z,-6.95
2022-12-18T16:31:46.917Z,-6.98
2022-12-18T16:34:19.209Z,-7.07
2022-12-18T16:36:45.732Z,-7.03
2022-12-18T16:39:12.242Z,-7.02
2022-12-18T16:41:38.768Z,-7.09
2022-12-18T16:44:05.407Z,-7.15
2022-12-18T16:46:32.034Z,-7.14
2022-12-18T16:49:00.387Z,-7.16
2022-12-18T16:51:27.944Z,-7.24
2022-12-18T16:53:55.269Z,-7.31
2022-12-18T16:56:22.308Z,-7.32
2022-12-18T16:58:56.966Z,-7.34
2022-12-18T17:01:25.512Z,-7.38
2022-12-18T17:03:58.070Z,-7.40
2022-12-18T17:06:26.000Z,-7.43
2022-12-18T17:09:16.419Z,-7.51
2022-12-18T17:11:43.414Z,-7.57
2022-12-18T17:14:21.306Z,-7.59
2022-12-18T17:16:57.775Z,-7.63
2022-12-18T17:19:34.961Z,-7.64
2022-12-18T17:22:01.711Z,-7.68
2022-12-18T17:24:33.054Z,-7.73
2022-12-18T17:27:01.574Z,-7.74
2022-12-18T17:29:28.099Z,-7.61
2022-12-18T17:31:54.604Z,-7.59
2022-12-18T17:34:23.342Z,-7.71
2022-12-18T17:36:50.141Z,-7.72
2022-12-18T17:39:20.186Z,-7.74
2022-12-18T17:41:47.812Z,-7.76
2022-12-18T17:44:14.867Z,-7.79
2022-12-18T17:46:41.573Z,-7.80
2022-12-18T17:49:08.473Z,-7.86
2022-12-18T17:51:35.046Z,-7.91
2022-12-18T17:54:01.547Z,-7.89
2022-12-18T17:56:28.202Z,-7.92
2022-12-18T17:58:55.427Z,-7.95
2022-12-18T18:01:25.175Z,-7.96
2022-12-18T18:03:54.274Z,-8.03
2022-12-18T18:06:21.394Z,-8.07
2022-12-18T18:08:48.267Z,-8.09
2022-12-18T18:11:35.800Z,-8.13
2022-12-18T18:14:05.224Z,-8.21
2022-12-18T18:16:41.001Z,-8.28
2022-12-18T18:19:10.937Z,-8.34
2022-12-18T18:21:41.827Z,-8.26
2022-12-18T18:24:10.203Z,-8.26
2022-12-18T18:26:37.177Z,-8.27
2022-12-18T18:29:06.366Z,-8.33
2022-12-18T18:31:40.771Z,-8.33
2022-12-18T18:34:08.792Z,-8.36
2022-12-18T18:36:35.518Z,-8.32
2022-12-18T18:39:02.432Z,-8.36
2022-12-18T18:41:30.573Z,-8.37
2022-12-18T18:43:58.436Z,-8.51
2022-12-18T18:46:25.667Z,-8.44
2022-12-18T18:48:52.325Z,-8.28
2022-12-18T18:51:21.527Z,-8.28
2022-12-18T18:53:50.415Z,-8.21
2022-12-18T18:56:50.187Z,-8.15
2022-12-18T18:59:06.298Z,-8.19
2022-12-18T19:01:33.205Z,-8.26
2022-12-18T19:04:00.822Z,-8.29
2022-12-18T19:06:28.400Z,-8.30
2022-12-18T19:08:57.093Z,-8.24
2022-12-18T19:11:44.003Z,-8.33
2022-12-18T19:14:12.658Z,-8.31
2022-12-18T19:16:39.425Z,-8.45
2022-12-18T19:19:06.818Z,-8.44
2022-12-18T19:21:34.179Z,-8.55
2022-12-18T19:24:02.681Z,-8.43
2022-12-18T19:26:29.503Z,-8.35
2022-12-18T19:29:04.518Z,-8.25
2022-12-18T19:31:35.705Z,-8.26
2022-12-18T19:34:03.834Z,-8.22
2022-12-18T19:36:34.345Z,-8.38
2022-12-18T19:39:01.751Z,-8.39
2022-12-18T19:41:31.404Z,-8.36
2022-12-18T19:43:59.755Z,-8.36
2022-12-18T19:46:26.499Z,-8.29
2022-12-18T19:48:53.677Z,-8.33
2022-12-18T19:51:22.520Z,-8.39
2022-12-18T19:53:53.570Z,-8.52
2022-12-18T19:56:25.784Z,-8.49
2022-12-18T19:58:53.152Z,-8.43
2022-12-18T20:01:21.678Z,-8.34
2022-12-18T20:03:52.784Z,-8.33
2022-12-18T20:06:28.717Z,-8.29
2022-12-18T20:09:00.296Z,-8.21
2022-12-18T20:11:31.001Z,-8.22
2022-12-18T20:13:58.485Z,-8.10
2022-12-18T20:16:25.125Z,-8.06
2022-12-18T20:20:45.906Z,-8.04
2022-12-18T20:21:38.886Z,-8.03
2022-12-18T20:24:06.954Z,-8.04
2022-12-18T20:26:33.502Z,-8.09
2022-12-18T20:29:00.117Z,-8.10
2022-12-18T20:31:26.770Z,-8.12
2022-12-18T20:33:57.664Z,-8.17
2022-12-18T20:36:28.192Z,-8.25
2022-12-18T20:38:58.151Z,-8.25
2022-12-18T20:41:27.713Z,-8.34
2022-12-18T20:44:04.820Z,-8.34
2022-12-18T20:46:31.306Z,-8.45
2022-12-18T20:48:57.904Z,-8.40
2022-12-18T20:51:24.699Z,-8.47
2022-12-18T20:53:53.002Z,-8.50
2022-12-18T20:56:21.951Z,-8.56
2022-12-18T20:58:50.218Z,-8.62
2022-12-18T21:01:20.585Z,-8.68
2022-12-18T21:03:48.237Z,-8.75
2022-12-18T21:06:17.510Z,-8.68
2022-12-18T21:08:44.256Z,-8.63
2022-12-18T21:11:50.866Z,-8.54
2022-12-18T21:14:23.192Z,-8.39
2022-12-18T21:16:50.682Z,-8.25
2022-12-18T21:19:21.277Z,-8.08
2022-12-18T21:21:47.873Z,-7.94
2022-12-18T21:24:15.079Z,-7.77
2022-12-18T21:26:45.741Z,-7.67
2022-12-18T21:29:21.415Z,-7.51
2022-12-18T21:31:48.322Z,-7.44
2022-12-18T21:34:18.075Z,-7.39
2022-12-18T21:36:45.044Z,-7.34
2022-12-18T21:39:13.517Z,-7.29
2022-12-18T21:41:58.451Z,-7.32
2022-12-18T21:44:25.167Z,-7.30
2022-12-18T21:46:56.926Z,-7.32
2022-12-18T21:49:28.144Z,-7.35
2022-12-18T21:51:57.130Z,-7.30
2022-12-18T21:54:25.393Z,-7.36
2022-12-18T21:57:00.162Z,-7.40
2022-12-18T21:59:33.059Z,-7.36
2022-12-18T22:02:02.303Z,-7.34
2022-12-18T22:04:29.363Z,-7.31
2022-12-18T22:06:56.569Z,-7.30
2022-12-18T22:09:24.947Z,-7.28
2022-12-18T22:11:52.659Z,-7.36
2022-12-18T22:14:20.300Z,-7.34
2022-12-18T22:16:47.788Z,-7.32
2022-12-18T22:19:15.365Z,-7.32
2022-12-18T22:21:47.164Z,-7.41
2022-12-18T22:24:15.359Z,-7.43
2022-12-18T22:26:42.714Z,-7.32
2022-12-18T22:29:33.500Z,-7.15
2022-12-18T22:32:01.160Z,-7.07
2022-12-18T22:34:27.989Z,-7.01
2022-12-18T22:36:54.566Z,-7.07
2022-12-18T22:39:23.989Z,-7.06
2022-12-18T22:41:52.174Z,-7.04
2022-12-18T22:44:19.088Z,-6.97
2022-12-18T22:47:00.637Z,-7.01
2022-12-18T22:49:33.882Z,-6.91
2022-12-18T22:52:01.941Z,-6.92
2022-12-18T22:54:28.481Z,-6.88
2022-12-18T22:56:55.510Z,-6.85
2022-12-18T22:59:23.424Z,-6.79
2022-12-18T23:01:52.919Z,-6.76
2022-12-18T23:04:32.960Z,-6.75
2022-12-18T23:07:05.277Z,-6.72
2022-12-18T23:09:32.185Z,-6.70
2022-12-18T23:11:59.008Z,-6.65
2022-12-18T23:14:25.853Z,-6.62
2022-12-18T23:16:53.176Z,-6.59
2022-12-18T23:19:20.514Z,-6.61
2022-12-18T23:21:47.447Z,-6.58
2022-12-18T23:24:14.557Z,-6.56
2022-12-18T23:26:41.521Z,-6.56
2022-12-18T23:29:08.262Z,-6.52
2022-12-18T23:31:38.503Z,-6.47
2022-12-18T23:34:06.496Z,-6.48
2022-12-18T23:36:35.242Z,-6.47
2022-12-18T23:39:12.760Z,-6.41
2022-12-18T23:41:50.566Z,-6.38
2022-12-18T23:44:17.083Z,-6.42
2022-12-18T23:46:43.643Z,-6.55
2022-12-18T23:49:10.328Z,-6.57
2022-12-18T23:51:36.817Z,-6.53
2022-12-18T23:54:04.875Z,-6.51
2022-12-18T23:56:31.642Z,-6.45
2022-12-18T23:58:58.319Z,-6.45
